Lake Delta, New York
Current Conditions -  °F | °C
As of 7:53 PM on Monday 24 Nov 2014 (Local Time) from KRME Reporting Station
Broken Clouds Broken Clouds  
Wind Chill: 65°   Ceiling: 8500
Heat Index: 65°   Visibility: 10mi
Dew Point: 49°   Wind: 21mph
Humidity: 56%   Direction: 210°SSW
Pressure: 29.51"   Gusts: 31mph
Location:  43.2466°N, 75.4624°W
Report Text: KRME 250053Z 21018G27KT 10SM SCT060 BKN085 BKN110 18/09 A2951 RMK AO2 PK WND 20027/0050 PRESRR SLP990 T01830094
Loading
Personal Weather Stations






























Interactive Weather Map New forecast layout! Learn more

10-Day Weather Forecast

Advertisements
Track Severe Weather on mobile